Time,TemperatureF,DewpointF,PressureIn,WindDirection,WindDirectionDegrees,WindSpeedMPH,WindSpeedGustMPH,Humidity,HourlyPrecipIn,Conditions,Clouds,dailyrainin,SoftwareType,DateUTC
2013-03-24 00:00:00,42.1,35.7,29.93,NW,315,0.0,0.0,78,0.00,,,0.00,WUHU216HW,2013-03-24 04:00:00,
2013-03-24 00:05:00,42.1,35.7,29.93,NW,315,0.0,0.0,78,0.00,,,0.00,WUHU216HW,2013-03-24 04:05:00,
2013-03-24 00:30:00,41.2,35.1,29.90,North,0,0.0,0.0,79,0.00,,,0.00,WUHU216HW,2013-03-24 04:30:00,
2013-03-24 00:35:00,41.2,35.1,29.90,North,0,0.0,0.0,79,0.00,,,0.00,WUHU216HW,2013-03-24 04:35:00,
2013-03-24 01:00:00,41.0,35.6,29.89,WSW,248,0.0,0.0,81,0.00,,,0.00,WUHU216HW,2013-03-24 05:00:00,
2013-03-24 01:05:00,41.0,35.6,29.89,WSW,248,0.0,0.0,81,0.00,,,0.00,WUHU216HW,2013-03-24 05:05:00,
2013-03-24 01:30:00,41.0,35.6,29.88,WSW,248,0.0,0.0,81,0.00,,,0.00,WUHU216HW,2013-03-24 05:30:00,
2013-03-24 01:35:00,41.0,35.6,29.88,WSW,248,0.0,0.0,81,0.00,,,0.00,WUHU216HW,2013-03-24 05:35:00,
2013-03-24 02:00:00,41.0,35.9,29.87,NNE,23,0.0,0.0,82,0.00,,,0.00,WUHU216HW,2013-03-24 06:00:00,
2013-03-24 02:05:00,41.0,35.9,29.87,NNE,23,0.0,0.0,82,0.00,,,0.00,WUHU216HW,2013-03-24 06:05:00,
2013-03-24 02:30:00,41.6,36.5,29.87,NNE,23,0.0,0.0,82,0.00,,,0.00,WUHU216HW,2013-03-24 06:30:00,
2013-03-24 02:35:00,41.6,36.5,29.87,NNE,23,0.0,0.0,82,0.00,,,0.00,WUHU216HW,2013-03-24 06:35:00,
2013-03-24 03:00:00,41.9,36.8,29.88,NNE,23,0.0,0.0,82,0.00,,,0.00,WUHU216HW,2013-03-24 07:00:00,
2013-03-24 03:05:00,41.9,36.8,29.88,NNE,23,0.0,0.0,82,0.00,,,0.00,WUHU216HW,2013-03-24 07:05:00,
2013-03-24 03:30:00,42.5,37.4,29.88,North,0,0.0,0.0,82,0.00,,,0.00,WUHU216HW,2013-03-24 07:30:00,
2013-03-24 03:35:00,42.5,37.4,29.88,North,0,0.0,0.0,82,0.00,,,0.00,WUHU216HW,2013-03-24 07:35:00,
2013-03-24 04:00:00,42.5,37.0,29.86,NE,45,3.1,3.1,81,0.00,,,0.00,WUHU216HW,2013-03-24 08:00:00,
2013-03-24 04:05:00,42.5,37.0,29.86,NE,45,3.1,3.1,81,0.00,,,0.00,WUHU216HW,2013-03-24 08:05:00,
2013-03-24 04:30:00,42.1,36.6,29.84,North,0,0.4,0.4,81,0.00,,,0.00,WUHU216HW,2013-03-24 08:30:00,
2013-03-24 04:35:00,42.1,36.6,29.84,North,0,0.4,0.4,81,0.00,,,0.00,WUHU216HW,2013-03-24 08:35:00,
2013-03-24 05:00:00,42.8,37.4,29.83,NE,45,2.5,2.5,81,0.00,,,0.00,WUHU216HW,2013-03-24 09:00:00,
2013-03-24 05:05:00,42.8,37.4,29.83,NE,45,2.5,2.5,81,0.00,,,0.00,WUHU216HW,2013-03-24 09:05:00,
2013-03-24 05:30:00,42.8,37.4,29.78,NE,45,1.3,1.3,81,0.00,,,0.00,WUHU216HW,2013-03-24 09:30:00,
2013-03-24 05:35:00,42.8,37.4,29.78,NE,45,1.3,1.3,81,0.00,,,0.00,WUHU216HW,2013-03-24 09:35:00,
2013-03-24 06:00:00,43.0,37.9,29.78,ENE,68,0.9,0.9,82,0.00,,,0.00,WUHU216HW,2013-03-24 10:00:00,
2013-03-24 06:05:00,43.0,37.9,29.78,ENE,68,0.9,0.9,82,0.00,,,0.00,WUHU216HW,2013-03-24 10:05:00,
2013-03-24 06:30:00,42.8,38.0,29.81,NE,45,1.8,1.8,83,0.00,,,0.00,WUHU216HW,2013-03-24 10:30:00,
2013-03-24 06:35:00,42.8,38.0,29.81,NE,45,1.8,1.8,83,0.00,,,0.00,WUHU216HW,2013-03-24 10:35:00,
2013-03-24 07:00:00,42.5,38.3,29.79,NE,45,3.4,3.4,85,0.00,,,0.00,WUHU216HW,2013-03-24 11:00:00,
2013-03-24 07:05:00,42.5,38.3,29.79,NE,45,3.4,3.4,85,0.00,,,0.00,WUHU216HW,2013-03-24 11:05:00,
2013-03-24 07:30:00,42.3,38.1,29.80,ENE,68,0.9,0.9,85,0.00,,,0.00,WUHU216HW,2013-03-24 11:30:00,
2013-03-24 07:35:00,42.3,38.1,29.80,ENE,68,0.9,0.9,85,0.00,,,0.00,WUHU216HW,2013-03-24 11:35:00,
2013-03-24 08:00:00,42.5,38.3,29.79,NE,45,1.1,1.1,85,0.00,,,0.00,WUHU216HW,2013-03-24 12:00:00,
2013-03-24 08:05:00,42.5,38.3,29.79,NE,45,1.1,1.1,85,0.00,,,0.00,WUHU216HW,2013-03-24 12:05:00,
2013-03-24 08:30:00,42.8,38.9,29.78,ENE,68,1.6,1.6,86,0.00,,,0.00,WUHU216HW,2013-03-24 12:30:00,
2013-03-24 08:35:00,42.8,38.9,29.78,ENE,68,1.6,1.6,86,0.00,,,0.00,WUHU216HW,2013-03-24 12:35:00,
2013-03-24 08:59:00,43.0,39.4,29.76,ENE,68,2.5,2.5,87,0.00,,,0.00,WUHU216HW,2013-03-24 12:59:00,
2013-03-24 09:00:00,43.0,39.4,29.76,ENE,68,2.5,2.5,87,0.00,,,0.00,WUHU216HW,2013-03-24 13:00:00,
2013-03-24 09:05:00,43.0,39.4,29.76,ENE,68,2.5,2.5,87,0.00,,,0.00,WUHU216HW,2013-03-24 13:05:00,
2013-03-24 09:30:00,42.8,39.3,29.70,East,90,2.9,2.9,87,0.00,,,0.00,WUHU216HW,2013-03-24 13:30:00,
2013-03-24 09:35:00,42.8,39.3,29.70,East,90,2.9,2.9,87,0.00,,,0.00,WUHU216HW,2013-03-24 13:35:00,
2013-03-24 09:59:00,43.2,39.9,29.65,ENE,68,6.0,6.0,88,0.00,,,0.00,WUHU216HW,2013-03-24 13:59:00,
2013-03-24 10:00:00,43.2,39.9,29.65,ENE,68,6.0,6.0,88,0.00,,,0.00,WUHU216HW,2013-03-24 14:00:00,
2013-03-24 10:05:00,43.2,39.9,29.65,ENE,68,6.0,6.0,88,0.00,,,0.00,WUHU216HW,2013-03-24 14:05:00,
2013-03-24 10:30:00,44.1,40.8,29.62,East,90,1.8,1.8,88,0.00,,,0.00,WUHU216HW,2013-03-24 14:30:00,
2013-03-24 10:35:00,44.1,40.8,29.62,East,90,1.8,1.8,88,0.00,,,0.00,WUHU216HW,2013-03-24 14:35:00,
2013-03-24 10:59:00,45.4,42.0,29.59,ENE,68,6.7,6.7,88,0.00,,,0.00,WUHU216HW,2013-03-24 14:59:00,
2013-03-24 11:00:00,45.4,42.0,29.59,ENE,68,6.7,6.7,88,0.00,,,0.00,WUHU216HW,2013-03-24 15:00:00,
2013-03-24 11:05:00,45.4,42.0,29.59,ENE,68,6.7,6.7,88,0.00,,,0.00,WUHU216HW,2013-03-24 15:05:00,
2013-03-24 11:30:00,45.9,42.6,29.63,NE,45,3.4,3.4,88,0.00,,,0.00,WUHU216HW,2013-03-24 15:30:00,
2013-03-24 11:35:00,45.9,42.6,29.63,NE,45,3.4,3.4,88,0.00,,,0.00,WUHU216HW,2013-03-24 15:35:00,
2013-03-24 11:59:00,46.1,42.8,29.60,NNE,23,9.2,9.2,88,0.00,,,0.00,WUHU216HW,2013-03-24 15:59:00,
2013-03-24 12:00:00,46.1,42.8,29.60,NNE,23,9.2,9.2,88,0.00,,,0.00,WUHU216HW,2013-03-24 16:00:00,
2013-03-24 12:05:00,46.1,42.8,29.60,NNE,23,9.2,9.2,88,0.00,,,0.00,WUHU216HW,2013-03-24 16:05:00,
2013-03-24 12:30:00,45.9,42.6,29.59,NE,45,4.7,4.7,88,0.00,,,0.00,WUHU216HW,2013-03-24 16:30:00,
2013-03-24 12:35:00,45.9,42.6,29.59,NE,45,4.7,4.7,88,0.00,,,0.00,WUHU216HW,2013-03-24 16:35:00,
2013-03-24 12:59:00,45.7,42.4,29.58,ENE,68,2.0,2.0,88,0.00,,,0.00,WUHU216HW,2013-03-24 16:59:00,
2013-03-24 13:00:00,45.7,42.4,29.58,ENE,68,2.0,2.0,88,0.00,,,0.00,WUHU216HW,2013-03-24 17:00:00,
2013-03-24 13:05:00,45.7,42.4,29.58,ENE,68,2.0,2.0,88,0.00,,,0.00,WUHU216HW,2013-03-24 17:05:00,
2013-03-24 13:30:00,46.1,42.8,29.55,NE,45,4.7,4.7,88,0.00,,,0.00,WUHU216HW,2013-03-24 17:30:00,
2013-03-24 13:35:00,46.1,42.8,29.55,NE,45,4.7,4.7,88,0.00,,,0.00,WUHU216HW,2013-03-24 17:35:00,
2013-03-24 14:00:00,46.4,43.1,29.53,NNE,23,1.8,1.8,88,0.00,,,0.00,WUHU216HW,2013-03-24 18:00:00,
2013-03-24 14:05:00,46.4,43.1,29.53,NNE,23,1.8,1.8,88,0.00,,,0.00,WUHU216HW,2013-03-24 18:05:00,
2013-03-24 14:30:00,46.8,43.5,29.52,North,0,2.5,2.5,88,0.00,,,0.00,WUHU216HW,2013-03-24 18:30:00,
2013-03-24 14:35:00,46.8,43.5,29.52,North,0,2.5,2.5,88,0.00,,,0.00,WUHU216HW,2013-03-24 18:35:00,
2013-03-24 15:00:00,46.4,43.5,29.50,NE,45,2.7,2.7,89,0.00,,,0.00,WUHU216HW,2013-03-24 19:00:00,
2013-03-24 15:05:00,46.4,43.5,29.50,NE,45,2.7,2.7,89,0.00,,,0.00,WUHU216HW,2013-03-24 19:05:00,
2013-03-24 15:30:00,46.1,43.4,29.49,NNE,23,0.4,0.4,90,0.00,,,0.00,WUHU216HW,2013-03-24 19:30:00,
2013-03-24 15:35:00,46.1,43.4,29.49,NNE,23,0.4,0.4,90,0.00,,,0.00,WUHU216HW,2013-03-24 19:35:00,
2013-03-24 16:00:00,45.5,42.8,29.51,NNE,23,3.8,3.8,90,0.00,,,0.00,WUHU216HW,2013-03-24 20:00:00,
2013-03-24 16:05:00,45.5,42.8,29.51,NNE,23,3.8,3.8,90,0.00,,,0.00,WUHU216HW,2013-03-24 20:05:00,
2013-03-24 16:30:00,45.2,42.5,29.51,NNE,23,2.7,2.7,90,0.00,,,0.00,WUHU216HW,2013-03-24 20:30:00,
2013-03-24 16:35:00,45.2,42.5,29.51,NNE,23,2.7,2.7,90,0.00,,,0.00,WUHU216HW,2013-03-24 20:35:00,
2013-03-24 17:00:00,44.8,42.1,29.52,North,0,3.6,3.6,90,0.00,,,0.00,WUHU216HW,2013-03-24 21:00:00,
2013-03-24 17:06:00,44.8,42.1,29.52,North,0,3.6,3.6,90,0.00,,,0.00,WUHU216HW,2013-03-24 21:06:00,
2013-03-24 17:30:00,44.3,41.3,29.53,North,0,4.5,4.5,89,0.00,,,0.00,WUHU216HW,2013-03-24 21:30:00,
2013-03-24 17:35:00,44.3,41.3,29.53,North,0,4.5,4.5,89,0.00,,,0.00,WUHU216HW,2013-03-24 21:35:00,
2013-03-24 18:30:00,43.0,40.1,29.54,NE,45,2.5,2.5,89,0.00,,,0.00,WUHU216HW,2013-03-24 22:30:00,
2013-03-24 18:35:00,43.0,40.1,29.54,NE,45,2.5,2.5,89,0.00,,,0.00,WUHU216HW,2013-03-24 22:35:00,
2013-03-24 19:00:00,42.3,39.3,29.54,NE,45,4.0,4.0,89,0.00,,,0.00,WUHU216HW,2013-03-24 23:00:00,
2013-03-24 19:05:00,42.3,39.3,29.54,NE,45,4.0,4.0,89,0.00,,,0.00,WUHU216HW,2013-03-24 23:05:00,
2013-03-24 19:30:00,41.8,38.8,29.57,NE,45,1.3,1.3,89,0.00,,,0.00,WUHU216HW,2013-03-24 23:30:00,
2013-03-24 19:35:00,41.8,38.8,29.57,NE,45,1.3,1.3,89,0.00,,,0.00,WUHU216HW,2013-03-24 23:35:00,
2013-03-24 20:00:00,41.4,38.4,29.57,NE,45,5.6,5.6,89,0.00,,,0.00,WUHU216HW,2013-03-25 00:00:00,
2013-03-24 20:05:00,41.4,38.4,29.57,NE,45,5.6,5.6,89,0.00,,,0.00,WUHU216HW,2013-03-25 00:05:00,
2013-03-24 20:30:00,41.2,38.3,29.58,NNE,23,2.5,2.5,89,0.00,,,0.00,WUHU216HW,2013-03-25 00:30:00,
2013-03-24 21:30:00,40.7,37.7,29.59,NE,45,1.1,1.1,89,0.00,,,0.00,WUHU216HW,2013-03-25 01:30:00,
2013-03-24 21:35:00,40.7,37.7,29.59,NE,45,1.1,1.1,89,0.00,,,0.00,WUHU216HW,2013-03-25 01:35:00,
2013-03-24 22:00:00,40.7,37.7,29.62,North,0,0.0,0.0,89,0.00,,,0.00,WUHU216HW,2013-03-25 02:00:00,
2013-03-24 22:05:00,40.7,37.7,29.62,North,0,0.0,0.0,89,0.00,,,0.00,WUHU216HW,2013-03-25 02:05:00,
2013-03-24 22:30:00,40.5,37.5,29.64,North,0,0.9,0.9,89,0.00,,,0.00,WUHU216HW,2013-03-25 02:30:00,
2013-03-24 22:35:00,40.5,37.5,29.64,North,0,0.9,0.9,89,0.00,,,0.00,WUHU216HW,2013-03-25 02:35:00,
2013-03-24 23:00:00,40.3,37.4,29.62,NNE,23,0.4,0.4,89,0.00,,,0.00,WUHU216HW,2013-03-25 03:00:00,
2013-03-24 23:05:00,40.3,37.4,29.62,NNE,23,0.4,0.4,89,0.00,,,0.00,WUHU216HW,2013-03-25 03:05:00,
2013-03-24 23:30:00,40.3,37.4,29.59,ENE,68,0.4,0.4,89,0.00,,,0.00,WUHU216HW,2013-03-25 03:30:00,
2013-03-24 23:35:00,40.3,37.4,29.59,ENE,68,0.4,0.4,89,0.00,,,0.00,WUHU216HW,2013-03-25 03:35:00,